sensor_id;sensor_type;location;lat;lon;timestamp;temperature;humidity
15341;DHT22;7770;52.158;5.372;2023-03-14T00:02:19;9.70;99.90
15341;DHT22;7770;52.158;5.372;2023-03-14T00:05:06;9.60;99.90
15341;DHT22;7770;52.158;5.372;2023-03-14T00:07:53;9.60;99.90
15341;DHT22;7770;52.158;5.372;2023-03-14T00:10:39;9.60;99.90
15341;DHT22;7770;52.158;5.372;2023-03-14T00:13:25;9.70;99.90
15341;DHT22;7770;52.158;5.372;2023-03-14T00:16:12;9.80;99.90
15341;DHT22;7770;52.158;5.372;2023-03-14T00:18:59;9.80;99.90
15341;DHT22;7770;52.158;5.372;2023-03-14T00:21:46;9.90;99.90
15341;DHT22;7770;52.158;5.372;2023-03-14T00:24:32;9.90;99.90
15341;DHT22;7770;52.158;5.372;2023-03-14T00:27:18;10.00;99.90
15341;DHT22;7770;52.158;5.372;2023-03-14T00:30:06;10.00;99.90
15341;DHT22;7770;52.158;5.372;2023-03-14T00:32:53;10.00;99.90
15341;DHT22;7770;52.158;5.372;2023-03-14T00:35:39;10.00;99.90
15341;DHT22;7770;52.158;5.372;2023-03-14T00:38:26;10.00;99.90
15341;DHT22;7770;52.158;5.372;2023-03-14T00:41:14;10.00;99.90
15341;DHT22;7770;52.158;5.372;2023-03-14T00:44:02;10.00;99.90
15341;DHT22;7770;52.158;5.372;2023-03-14T00:46:48;10.00;99.90
15341;DHT22;7770;52.158;5.372;2023-03-14T00:49:34;10.10;99.90
15341;DHT22;7770;52.158;5.372;2023-03-14T00:52:20;10.10;99.90
15341;DHT22;7770;52.158;5.372;2023-03-14T00:55:06;10.20;99.90
15341;DHT22;7770;52.158;5.372;2023-03-14T00:57:52;10.30;99.90
15341;DHT22;7770;52.158;5.372;2023-03-14T01:00:39;10.30;99.90
15341;DHT22;7770;52.158;5.372;2023-03-14T01:03:25;10.30;99.90
15341;DHT22;7770;52.158;5.372;2023-03-14T01:06:17;10.30;99.90
15341;DHT22;7770;52.158;5.372;2023-03-14T01:09:05;10.20;99.90
15341;DHT22;7770;52.158;5.372;2023-03-14T01:11:51;10.10;99.90
15341;DHT22;7770;52.158;5.372;2023-03-14T01:14:37;10.00;99.90
15341;DHT22;7770;52.158;5.372;2023-03-14T01:17:23;10.00;99.90
15341;DHT22;7770;52.158;5.372;2023-03-14T01:20:11;9.90;99.90
15341;DHT22;7770;52.158;5.372;2023-03-14T01:22:59;9.80;99.90
15341;DHT22;7770;52.158;5.372;2023-03-14T01:25:45;9.70;99.90
15341;DHT22;7770;52.158;5.372;2023-03-14T01:28:31;9.60;99.90
15341;DHT22;7770;52.158;5.372;2023-03-14T01:31:17;9.50;99.90
15341;DHT22;7770;52.158;5.372;2023-03-14T01:34:03;9.50;99.90
15341;DHT22;7770;52.158;5.372;2023-03-14T01:36:49;9.40;99.90
15341;DHT22;7770;52.158;5.372;2023-03-14T01:39:35;9.40;99.90
15341;DHT22;7770;52.158;5.372;2023-03-14T01:42:21;9.30;99.90
15341;DHT22;7770;52.158;5.372;2023-03-14T01:48:58;9.30;99.90
15341;DHT22;7770;52.158;5.372;2023-03-14T01:54:44;9.30;99.90
15341;DHT22;7770;52.158;5.372;2023-03-14T01:57:37;9.30;99.90
15341;DHT22;7770;52.158;5.372;2023-03-14T02:00:25;9.30;99.90
15341;DHT22;7770;52.158;5.372;2023-03-14T02:03:15;9.30;99.90
15341;DHT22;7770;52.158;5.372;2023-03-14T02:06:06;9.30;99.90
15341;DHT22;7770;52.158;5.372;2023-03-14T02:08:53;9.30;99.90
15341;DHT22;7770;52.158;5.372;2023-03-14T02:11:40;9.30;99.90
15341;DHT22;7770;52.158;5.372;2023-03-14T02:14:32;9.40;99.90
15341;DHT22;7770;52.158;5.372;2023-03-14T02:17:20;9.40;99.90
15341;DHT22;7770;52.158;5.372;2023-03-14T02:23:04;9.40;99.90
15341;DHT22;7770;52.158;5.372;2023-03-14T02:26:02;9.40;99.90
15341;DHT22;7770;52.158;5.372;2023-03-14T02:28:51;9.40;99.90
15341;DHT22;7770;52.158;5.372;2023-03-14T02:31:39;9.40;99.90
15341;DHT22;7770;52.158;5.372;2023-03-14T02:34:25;9.40;99.90
15341;DHT22;7770;52.158;5.372;2023-03-14T02:37:13;9.40;99.90
15341;DHT22;7770;52.158;5.372;2023-03-14T02:40:00;9.40;99.90
15341;DHT22;7770;52.158;5.372;2023-03-14T02:42:46;9.40;99.90
15341;DHT22;7770;52.158;5.372;2023-03-14T02:45:44;9.40;99.90
15341;DHT22;7770;52.158;5.372;2023-03-14T02:48:35;9.50;99.90
15341;DHT22;7770;52.158;5.372;2023-03-14T02:51:26;9.40;99.90
15341;DHT22;7770;52.158;5.372;2023-03-14T02:54:14;9.40;99.90
15341;DHT22;7770;52.158;5.372;2023-03-14T02:57:03;9.40;99.90
15341;DHT22;7770;52.158;5.372;2023-03-14T02:59:49;9.40;99.90
15341;DHT22;7770;52.158;5.372;2023-03-14T03:02:35;9.40;99.90
15341;DHT22;7770;52.158;5.372;2023-03-14T03:05:21;9.40;99.90
15341;DHT22;7770;52.158;5.372;2023-03-14T03:08:08;9.40;99.90
15341;DHT22;7770;52.158;5.372;2023-03-14T03:10:54;9.40;99.90
15341;DHT22;7770;52.158;5.372;2023-03-14T03:13:42;9.40;99.90
15341;DHT22;7770;52.158;5.372;2023-03-14T03:16:28;9.40;99.90
15341;DHT22;7770;52.158;5.372;2023-03-14T03:19:14;9.40;99.90
15341;DHT22;7770;52.158;5.372;2023-03-14T03:22:01;9.40;99.90
15341;DHT22;7770;52.158;5.372;2023-03-14T03:24:48;9.40;99.90
15341;DHT22;7770;52.158;5.372;2023-03-14T03:27:36;9.30;99.90
15341;DHT22;7770;52.158;5.372;2023-03-14T03:30:22;9.30;99.90
15341;DHT22;7770;52.158;5.372;2023-03-14T03:33:09;9.30;99.90
15341;DHT22;7770;52.158;5.372;2023-03-14T03:35:55;9.30;99.90
15341;DHT22;7770;52.158;5.372;2023-03-14T03:38:41;9.30;99.90
15341;DHT22;7770;52.158;5.372;2023-03-14T03:41:27;9.30;99.90
15341;DHT22;7770;52.158;5.372;2023-03-14T03:44:13;9.30;99.90
15341;DHT22;7770;52.158;5.372;2023-03-14T03:46:59;9.30;99.90
15341;DHT22;7770;52.158;5.372;2023-03-14T03:49:45;9.30;99.90
15341;DHT22;7770;52.158;5.372;2023-03-14T03:52:31;9.30;99.90
15341;DHT22;7770;52.158;5.372;2023-03-14T03:55:17;9.30;99.90
15341;DHT22;7770;52.158;5.372;2023-03-14T03:58:03;9.40;99.90
15341;DHT22;7770;52.158;5.372;2023-03-14T04:00:49;9.40;99.90
15341;DHT22;7770;52.158;5.372;2023-03-14T04:03:35;9.50;99.90
15341;DHT22;7770;52.158;5.372;2023-03-14T04:06:24;9.50;99.90
15341;DHT22;7770;52.158;5.372;2023-03-14T04:09:11;9.60;99.90
15341;DHT22;7770;52.158;5.372;2023-03-14T04:11:57;9.60;99.90
15341;DHT22;7770;52.158;5.372;2023-03-14T04:14:43;9.60;99.90
15341;DHT22;7770;52.158;5.372;2023-03-14T04:17:30;9.60;99.90
15341;DHT22;7770;52.158;5.372;2023-03-14T04:20:17;9.70;99.90
15341;DHT22;7770;52.158;5.372;2023-03-14T04:23:03;9.70;99.90
15341;DHT22;7770;52.158;5.372;2023-03-14T04:25:52;9.70;99.90
15341;DHT22;7770;52.158;5.372;2023-03-14T04:28:39;9.70;99.90
15341;DHT22;7770;52.158;5.372;2023-03-14T04:31:25;9.80;99.90
15341;DHT22;7770;52.158;5.372;2023-03-14T04:34:11;9.80;99.90
15341;DHT22;7770;52.158;5.372;2023-03-14T04:36:57;9.80;99.90
15341;DHT22;7770;52.158;5.372;2023-03-14T04:39:43;9.80;99.90
15341;DHT22;7770;52.158;5.372;2023-03-14T04:42:29;9.80;99.90
15341;DHT22;7770;52.158;5.372;2023-03-14T04:45:15;9.80;99.90
15341;DHT22;7770;52.158;5.372;2023-03-14T04:48:01;9.80;99.90
15341;DHT22;7770;52.158;5.372;2023-03-14T04:50:47;9.80;99.90
15341;DHT22;7770;52.158;5.372;2023-03-14T04:53:34;9.80;99.90
15341;DHT22;7770;52.158;5.372;2023-03-14T04:56:21;9.80;99.90
15341;DHT22;7770;52.158;5.372;2023-03-14T04:59:07;9.80;99.90
15341;DHT22;7770;52.158;5.372;2023-03-14T05:01:53;9.80;99.90
15341;DHT22;7770;52.158;5.372;2023-03-14T05:04:39;9.80;99.90
15341;DHT22;7770;52.158;5.372;2023-03-14T05:07:26;9.80;99.90
15341;DHT22;7770;52.158;5.372;2023-03-14T05:10:12;9.70;99.90
15341;DHT22;7770;52.158;5.372;2023-03-14T05:12:58;9.70;99.90
15341;DHT22;7770;52.158;5.372;2023-03-14T05:15:43;9.60;99.90
15341;DHT22;7770;52.158;5.372;2023-03-14T05:18:29;9.50;99.90
15341;DHT22;7770;52.158;5.372;2023-03-14T05:21:15;9.40;99.90
15341;DHT22;7770;52.158;5.372;2023-03-14T05:24:01;9.40;99.90
15341;DHT22;7770;52.158;5.372;2023-03-14T05:26:48;9.40;99.90
15341;DHT22;7770;52.158;5.372;2023-03-14T05:29:34;9.30;99.90
15341;DHT22;7770;52.158;5.372;2023-03-14T05:32:20;9.30;99.90
15341;DHT22;7770;52.158;5.372;2023-03-14T05:35:06;9.30;99.90
15341;DHT22;7770;52.158;5.372;2023-03-14T05:37:53;9.20;99.90
15341;DHT22;7770;52.158;5.372;2023-03-14T05:40:39;9.20;99.90
15341;DHT22;7770;52.158;5.372;2023-03-14T05:43:25;9.20;99.90
15341;DHT22;7770;52.158;5.372;2023-03-14T05:46:11;9.20;99.90
15341;DHT22;7770;52.158;5.372;2023-03-14T05:48:58;9.20;99.90
15341;DHT22;7770;52.158;5.372;2023-03-14T05:51:45;9.10;99.90
15341;DHT22;7770;52.158;5.372;2023-03-14T05:54:31;9.10;99.90
15341;DHT22;7770;52.158;5.372;2023-03-14T05:57:17;9.10;99.90
15341;DHT22;7770;52.158;5.372;2023-03-14T06:00:03;9.10;99.90
15341;DHT22;7770;52.158;5.372;2023-03-14T06:02:50;9.10;99.90
15341;DHT22;7770;52.158;5.372;2023-03-14T06:05:36;9.10;99.90
15341;DHT22;7770;52.158;5.372;2023-03-14T06:08:22;9.10;99.90
15341;DHT22;7770;52.158;5.372;2023-03-14T06:11:08;9.10;99.90
15341;DHT22;7770;52.158;5.372;2023-03-14T06:13:55;9.10;99.90
15341;DHT22;7770;52.158;5.372;2023-03-14T06:16:41;9.10;99.90
15341;DHT22;7770;52.158;5.372;2023-03-14T06:19:27;9.10;99.90
15341;DHT22;7770;52.158;5.372;2023-03-14T06:22:13;9.10;99.90
15341;DHT22;7770;52.158;5.372;2023-03-14T06:24:59;9.20;99.90
15341;DHT22;7770;52.158;5.372;2023-03-14T06:27:45;9.10;99.90
15341;DHT22;7770;52.158;5.372;2023-03-14T06:30:32;9.20;99.90
15341;DHT22;7770;52.158;5.372;2023-03-14T06:33:18;9.20;99.90
15341;DHT22;7770;52.158;5.372;2023-03-14T06:36:04;9.20;99.90
15341;DHT22;7770;52.158;5.372;2023-03-14T06:38:50;9.20;99.90
15341;DHT22;7770;52.158;5.372;2023-03-14T06:41:36;9.20;99.90
15341;DHT22;7770;52.158;5.372;2023-03-14T06:44:22;9.10;99.90
15341;DHT22;7770;52.158;5.372;2023-03-14T06:47:08;9.00;99.90
15341;DHT22;7770;52.158;5.372;2023-03-14T06:49:54;8.70;99.90
15341;DHT22;7770;52.158;5.372;2023-03-14T06:52:40;8.50;99.90
15341;DHT22;7770;52.158;5.372;2023-03-14T06:55:27;8.50;99.90
15341;DHT22;7770;52.158;5.372;2023-03-14T06:58:13;8.40;99.90
15341;DHT22;7770;52.158;5.372;2023-03-14T07:00:59;8.40;99.90
15341;DHT22;7770;52.158;5.372;2023-03-14T07:03:46;8.40;99.90
15341;DHT22;7770;52.158;5.372;2023-03-14T07:06:33;8.30;99.90
15341;DHT22;7770;52.158;5.372;2023-03-14T07:09:19;8.20;99.90
15341;DHT22;7770;52.158;5.372;2023-03-14T07:12:06;8.20;99.90
15341;DHT22;7770;52.158;5.372;2023-03-14T07:14:52;8.10;99.90
15341;DHT22;7770;52.158;5.372;2023-03-14T07:17:38;8.10;99.90
15341;DHT22;7770;52.158;5.372;2023-03-14T07:20:24;8.10;99.90
15341;DHT22;7770;52.158;5.372;2023-03-14T07:23:10;8.00;99.90
15341;DHT22;7770;52.158;5.372;2023-03-14T07:25:56;8.10;99.90
15341;DHT22;7770;52.158;5.372;2023-03-14T07:28:42;8.10;99.90
15341;DHT22;7770;52.158;5.372;2023-03-14T07:31:28;8.10;99.90
15341;DHT22;7770;52.158;5.372;2023-03-14T07:34:14;8.00;99.90
15341;DHT22;7770;52.158;5.372;2023-03-14T07:37:00;8.00;99.90
15341;DHT22;7770;52.158;5.372;2023-03-14T07:39:46;7.90;99.90
15341;DHT22;7770;52.158;5.372;2023-03-14T07:42:32;7.90;99.90
15341;DHT22;7770;52.158;5.372;2023-03-14T07:45:18;7.80;99.90
15341;DHT22;7770;52.158;5.372;2023-03-14T07:48:04;7.80;99.90
15341;DHT22;7770;52.158;5.372;2023-03-14T07:50:51;7.80;99.90
15341;DHT22;7770;52.158;5.372;2023-03-14T07:53:37;7.70;99.90
15341;DHT22;7770;52.158;5.372;2023-03-14T07:56:24;7.70;99.90
15341;DHT22;7770;52.158;5.372;2023-03-14T07:59:10;7.70;99.90
15341;DHT22;7770;52.158;5.372;2023-03-14T08:01:57;7.80;99.90
15341;DHT22;7770;52.158;5.372;2023-03-14T08:04:44;7.30;99.90
15341;DHT22;7770;52.158;5.372;2023-03-14T08:07:30;6.80;99.90
15341;DHT22;7770;52.158;5.372;2023-03-14T08:10:16;6.60;99.90
15341;DHT22;7770;52.158;5.372;2023-03-14T08:13:09;6.50;99.90
15341;DHT22;7770;52.158;5.372;2023-03-14T08:15:55;6.40;99.90
15341;DHT22;7770;52.158;5.372;2023-03-14T08:18:41;6.40;99.90
15341;DHT22;7770;52.158;5.372;2023-03-14T08:21:27;6.30;99.90
15341;DHT22;7770;52.158;5.372;2023-03-14T08:24:13;6.30;99.90
15341;DHT22;7770;52.158;5.372;2023-03-14T08:26:59;6.20;99.90
15341;DHT22;7770;52.158;5.372;2023-03-14T08:29:45;6.20;99.90
15341;DHT22;7770;52.158;5.372;2023-03-14T08:32:32;6.10;99.90
15341;DHT22;7770;52.158;5.372;2023-03-14T08:35:18;6.10;99.90
15341;DHT22;7770;52.158;5.372;2023-03-14T08:38:04;6.10;99.90
15341;DHT22;7770;52.158;5.372;2023-03-14T08:40:56;6.10;99.90
15341;DHT22;7770;52.158;5.372;2023-03-14T08:43:43;6.30;99.90
15341;DHT22;7770;52.158;5.372;2023-03-14T08:46:29;6.50;99.90
15341;DHT22;7770;52.158;5.372;2023-03-14T08:49:15;6.70;99.90
15341;DHT22;7770;52.158;5.372;2023-03-14T08:52:03;6.90;99.90
15341;DHT22;7770;52.158;5.372;2023-03-14T08:54:49;7.00;99.90
15341;DHT22;7770;52.158;5.372;2023-03-14T08:57:36;6.90;99.90
15341;DHT22;7770;52.158;5.372;2023-03-14T09:00:22;6.90;99.90
15341;DHT22;7770;52.158;5.372;2023-03-14T09:03:08;6.80;99.90
15341;DHT22;7770;52.158;5.372;2023-03-14T09:05:54;6.80;99.90
15341;DHT22;7770;52.158;5.372;2023-03-14T09:08:40;6.80;99.90
15341;DHT22;7770;52.158;5.372;2023-03-14T09:11:26;7.00;99.90
15341;DHT22;7770;52.158;5.372;2023-03-14T09:14:12;7.30;99.90
15341;DHT22;7770;52.158;5.372;2023-03-14T09:16:58;7.50;99.90
15341;DHT22;7770;52.158;5.372;2023-03-14T09:19:44;7.50;99.90
15341;DHT22;7770;52.158;5.372;2023-03-14T09:22:30;7.30;99.90
15341;DHT22;7770;52.158;5.372;2023-03-14T09:25:16;7.10;99.90
15341;DHT22;7770;52.158;5.372;2023-03-14T09:28:02;6.90;99.90
15341;DHT22;7770;52.158;5.372;2023-03-14T09:30:48;6.80;99.90
15341;DHT22;7770;52.158;5.372;2023-03-14T09:33:35;6.70;99.90
15341;DHT22;7770;52.158;5.372;2023-03-14T09:36:22;6.90;99.90
15341;DHT22;7770;52.158;5.372;2023-03-14T09:39:08;7.10;99.90
15341;DHT22;7770;52.158;5.372;2023-03-14T09:41:56;7.20;99.90
15341;DHT22;7770;52.158;5.372;2023-03-14T09:45:02;7.30;99.90
15341;DHT22;7770;52.158;5.372;2023-03-14T09:47:53;7.30;99.90
15341;DHT22;7770;52.158;5.372;2023-03-14T09:50:44;7.30;99.90
15341;DHT22;7770;52.158;5.372;2023-03-14T09:53:43;7.50;99.90
15341;DHT22;7770;52.158;5.372;2023-03-14T09:56:32;7.60;99.90
15341;DHT22;7770;52.158;5.372;2023-03-14T09:59:19;8.00;99.90
15341;DHT22;7770;52.158;5.372;2023-03-14T10:02:20;8.00;99.90
15341;DHT22;7770;52.158;5.372;2023-03-14T10:05:15;7.90;99.90
15341;DHT22;7770;52.158;5.372;2023-03-14T10:08:03;8.00;99.90
15341;DHT22;7770;52.158;5.372;2023-03-14T10:10:50;7.80;99.90
15341;DHT22;7770;52.158;5.372;2023-03-14T10:14:06;7.50;99.90
15341;DHT22;7770;52.158;5.372;2023-03-14T10:16:53;7.10;99.90
15341;DHT22;7770;52.158;5.372;2023-03-14T10:19:59;7.10;99.90
15341;DHT22;7770;52.158;5.372;2023-03-14T10:22:46;7.00;99.90
15341;DHT22;7770;52.158;5.372;2023-03-14T10:25:38;7.00;99.90
15341;DHT22;7770;52.158;5.372;2023-03-14T10:28:28;7.30;99.90
15341;DHT22;7770;52.158;5.372;2023-03-14T10:31:15;7.40;99.90
15341;DHT22;7770;52.158;5.372;2023-03-14T10:34:04;7.50;99.90
15341;DHT22;7770;52.158;5.372;2023-03-14T10:36:56;7.70;99.90
15341;DHT22;7770;52.158;5.372;2023-03-14T10:39:50;7.60;99.90
15341;DHT22;7770;52.158;5.372;2023-03-14T10:42:42;7.60;99.90
15341;DHT22;7770;52.158;5.372;2023-03-14T10:45:41;7.40;99.90
15341;DHT22;7770;52.158;5.372;2023-03-14T10:48:37;7.00;99.90
15341;DHT22;7770;52.158;5.372;2023-03-14T10:51:29;6.90;99.90
15341;DHT22;7770;52.158;5.372;2023-03-14T10:54:23;6.80;99.90
15341;DHT22;7770;52.158;5.372;2023-03-14T10:57:12;6.60;99.90
15341;DHT22;7770;52.158;5.372;2023-03-14T10:59:58;6.50;99.90
15341;DHT22;7770;52.158;5.372;2023-03-14T11:06:02;6.60;99.90
15341;DHT22;7770;52.158;5.372;2023-03-14T11:12:51;7.00;99.90
15341;DHT22;7770;52.158;5.372;2023-03-14T11:15:53;7.20;99.90
15341;DHT22;7770;52.158;5.372;2023-03-14T11:28:26;10.80;99.90
15341;DHT22;7770;52.158;5.372;2023-03-14T11:31:32;10.80;99.90
15341;DHT22;7770;52.158;5.372;2023-03-14T11:34:28;10.00;99.90
15341;DHT22;7770;52.158;5.372;2023-03-14T11:37:25;11.20;99.90
15341;DHT22;7770;52.158;5.372;2023-03-14T11:40:24;10.90;99.90
15341;DHT22;7770;52.158;5.372;2023-03-14T11:43:24;12.10;99.90
15341;DHT22;7770;52.158;5.372;2023-03-14T11:46:33;13.30;99.90
15341;DHT22;7770;52.158;5.372;2023-03-14T11:52:30;14.30;96.30
15341;DHT22;7770;52.158;5.372;2023-03-14T11:55:34;13.30;95.60
15341;DHT22;7770;52.158;5.372;2023-03-14T11:58:33;13.40;97.60
15341;DHT22;7770;52.158;5.372;2023-03-14T12:01:22;13.90;95.80
15341;DHT22;7770;52.158;5.372;2023-03-14T12:04:32;13.30;94.60
15341;DHT22;7770;52.158;5.372;2023-03-14T12:07:36;12.20;97.30
15341;DHT22;7770;52.158;5.372;2023-03-14T12:10:27;12.10;96.70
15341;DHT22;7770;52.158;5.372;2023-03-14T12:13:14;12.40;95.50
15341;DHT22;7770;52.158;5.372;2023-03-14T12:16:05;13.20;96.90
15341;DHT22;7770;52.158;5.372;2023-03-14T12:18:53;12.60;96.30
15341;DHT22;7770;52.158;5.372;2023-03-14T12:24:47;11.70;96.60
15341;DHT22;7770;52.158;5.372;2023-03-14T12:28:03;12.10;95.60
15341;DHT22;7770;52.158;5.372;2023-03-14T12:42:58;10.80;96.40
15341;DHT22;7770;52.158;5.372;2023-03-14T12:46:06;10.50;96.80
15341;DHT22;7770;52.158;5.372;2023-03-14T12:51:48;10.60;96.30
15341;DHT22;7770;52.158;5.372;2023-03-14T12:54:46;10.50;96.70
15341;DHT22;7770;52.158;5.372;2023-03-14T12:57:51;10.50;94.50
15341;DHT22;7770;52.158;5.372;2023-03-14T13:00:55;10.10;94.90
15341;DHT22;7770;52.158;5.372;2023-03-14T13:03:53;9.70;95.60
15341;DHT22;7770;52.158;5.372;2023-03-14T13:09:54;9.70;96.00
15341;DHT22;7770;52.158;5.372;2023-03-14T13:13:01;10.10;95.70
15341;DHT22;7770;52.158;5.372;2023-03-14T13:15:59;10.40;96.50
15341;DHT22;7770;52.158;5.372;2023-03-14T13:18:59;10.40;94.80
15341;DHT22;7770;52.158;5.372;2023-03-14T13:21:47;10.30;95.30
15341;DHT22;7770;52.158;5.372;2023-03-14T13:24:34;10.10;95.00
15341;DHT22;7770;52.158;5.372;2023-03-14T13:27:20;10.20;94.80
15341;DHT22;7770;52.158;5.372;2023-03-14T13:30:29;10.10;94.90
15341;DHT22;7770;52.158;5.372;2023-03-14T13:33:23;9.80;94.50
15341;DHT22;7770;52.158;5.372;2023-03-14T13:36:09;9.50;94.50
15341;DHT22;7770;52.158;5.372;2023-03-14T13:39:01;9.20;95.20
15341;DHT22;7770;52.158;5.372;2023-03-14T13:41:48;9.20;95.70
15341;DHT22;7770;52.158;5.372;2023-03-14T13:44:37;9.40;95.30
15341;DHT22;7770;52.158;5.372;2023-03-14T13:47:25;9.60;95.10
15341;DHT22;7770;52.158;5.372;2023-03-14T13:50:15;9.60;95.70
15341;DHT22;7770;52.158;5.372;2023-03-14T13:53:02;9.70;95.60
15341;DHT22;7770;52.158;5.372;2023-03-14T13:55:49;9.50;96.00
15341;DHT22;7770;52.158;5.372;2023-03-14T13:58:37;9.30;96.80
15341;DHT22;7770;52.158;5.372;2023-03-14T14:01:32;9.20;97.90
15341;DHT22;7770;52.158;5.372;2023-03-14T14:04:22;9.20;98.20
15341;DHT22;7770;52.158;5.372;2023-03-14T14:07:14;9.10;99.30
15341;DHT22;7770;52.158;5.372;2023-03-14T14:10:04;9.00;98.60
15341;DHT22;7770;52.158;5.372;2023-03-14T14:12:54;9.00;97.50
15341;DHT22;7770;52.158;5.372;2023-03-14T14:15:47;9.00;96.80
15341;DHT22;7770;52.158;5.372;2023-03-14T14:18:35;8.90;97.00
15341;DHT22;7770;52.158;5.372;2023-03-14T14:21:21;8.90;96.80
15341;DHT22;7770;52.158;5.372;2023-03-14T14:24:14;9.00;96.40
15341;DHT22;7770;52.158;5.372;2023-03-14T14:27:24;8.80;96.10
15341;DHT22;7770;52.158;5.372;2023-03-14T14:33:18;8.60;96.80
15341;DHT22;7770;52.158;5.372;2023-03-14T14:36:25;8.40;96.00
15341;DHT22;7770;52.158;5.372;2023-03-14T14:39:24;8.30;95.70
15341;DHT22;7770;52.158;5.372;2023-03-14T14:42:20;8.30;95.70
15341;DHT22;7770;52.158;5.372;2023-03-14T14:45:14;8.20;95.80
15341;DHT22;7770;52.158;5.372;2023-03-14T14:48:09;8.10;96.30
15341;DHT22;7770;52.158;5.372;2023-03-14T14:53:46;8.20;95.60
15341;DHT22;7770;52.158;5.372;2023-03-14T14:56:36;8.20;95.70
15341;DHT22;7770;52.158;5.372;2023-03-14T14:59:27;8.20;95.80
15341;DHT22;7770;52.158;5.372;2023-03-14T15:05:23;8.20;96.90
15341;DHT22;7770;52.158;5.372;2023-03-14T15:08:11;8.40;96.80
15341;DHT22;7770;52.158;5.372;2023-03-14T15:10:59;8.30;96.70
15341;DHT22;7770;52.158;5.372;2023-03-14T15:13:45;8.30;97.20
15341;DHT22;7770;52.158;5.372;2023-03-14T15:16:31;8.30;97.00
15341;DHT22;7770;52.158;5.372;2023-03-14T15:19:24;8.30;96.80
15341;DHT22;7770;52.158;5.372;2023-03-14T15:22:12;8.30;96.90
15341;DHT22;7770;52.158;5.372;2023-03-14T15:25:01;8.20;96.20
15341;DHT22;7770;52.158;5.372;2023-03-14T15:27:47;8.30;96.30
15341;DHT22;7770;52.158;5.372;2023-03-14T15:30:33;8.20;96.10
15341;DHT22;7770;52.158;5.372;2023-03-14T15:33:20;8.10;95.90
15341;DHT22;7770;52.158;5.372;2023-03-14T15:36:24;8.20;96.50
15341;DHT22;7770;52.158;5.372;2023-03-14T15:39:16;8.20;96.50
15341;DHT22;7770;52.158;5.372;2023-03-14T15:42:02;8.20;96.30
15341;DHT22;7770;52.158;5.372;2023-03-14T15:44:48;8.10;97.40
15341;DHT22;7770;52.158;5.372;2023-03-14T15:47:34;7.80;95.80
15341;DHT22;7770;52.158;5.372;2023-03-14T15:50:20;7.60;96.20
15341;DHT22;7770;52.158;5.372;2023-03-14T15:53:06;7.50;95.40
15341;DHT22;7770;52.158;5.372;2023-03-14T15:55:52;7.50;95.40
15341;DHT22;7770;52.158;5.372;2023-03-14T15:58:38;7.40;96.00
15341;DHT22;7770;52.158;5.372;2023-03-14T16:01:25;7.30;96.60
15341;DHT22;7770;52.158;5.372;2023-03-14T16:04:12;7.30;97.30
15341;DHT22;7770;52.158;5.372;2023-03-14T16:06:58;7.30;97.50
15341;DHT22;7770;52.158;5.372;2023-03-14T16:09:44;7.20;97.80
15341;DHT22;7770;52.158;5.372;2023-03-14T16:12:31;7.20;98.00
15341;DHT22;7770;52.158;5.372;2023-03-14T16:15:17;7.20;97.70
15341;DHT22;7770;52.158;5.372;2023-03-14T16:18:03;7.10;97.50
15341;DHT22;7770;52.158;5.372;2023-03-14T16:20:58;7.10;97.50
15341;DHT22;7770;52.158;5.372;2023-03-14T16:23:45;7.10;97.80
15341;DHT22;7770;52.158;5.372;2023-03-14T16:26:32;7.10;98.10
15341;DHT22;7770;52.158;5.372;2023-03-14T16:29:21;7.10;98.80
15341;DHT22;7770;52.158;5.372;2023-03-14T16:32:08;7.10;98.70
15341;DHT22;7770;52.158;5.372;2023-03-14T16:34:54;7.10;99.30
15341;DHT22;7770;52.158;5.372;2023-03-14T16:37:40;7.10;99.60
15341;DHT22;7770;52.158;5.372;2023-03-14T16:40:26;7.10;99.80
15341;DHT22;7770;52.158;5.372;2023-03-14T16:43:12;7.00;98.60
15341;DHT22;7770;52.158;5.372;2023-03-14T16:45:59;7.00;99.20
15341;DHT22;7770;52.158;5.372;2023-03-14T16:48:45;6.90;99.60
15341;DHT22;7770;52.158;5.372;2023-03-14T16:51:31;6.80;99.50
15341;DHT22;7770;52.158;5.372;2023-03-14T16:54:18;6.80;99.10
15341;DHT22;7770;52.158;5.372;2023-03-14T16:57:04;6.80;99.60
15341;DHT22;7770;52.158;5.372;2023-03-14T16:59:50;6.80;99.90
15341;DHT22;7770;52.158;5.372;2023-03-14T17:02:35;6.90;99.60
15341;DHT22;7770;52.158;5.372;2023-03-14T17:05:21;6.80;99.90
15341;DHT22;7770;52.158;5.372;2023-03-14T17:08:08;6.80;99.90
15341;DHT22;7770;52.158;5.372;2023-03-14T17:10:54;6.90;99.90
15341;DHT22;7770;52.158;5.372;2023-03-14T17:13:40;6.80;99.80
15341;DHT22;7770;52.158;5.372;2023-03-14T17:16:26;6.70;99.80
15341;DHT22;7770;52.158;5.372;2023-03-14T17:19:13;6.60;99.30
15341;DHT22;7770;52.158;5.372;2023-03-14T17:21:59;6.50;99.90
15341;DHT22;7770;52.158;5.372;2023-03-14T17:24:45;6.50;99.30
15341;DHT22;7770;52.158;5.372;2023-03-14T17:27:31;6.30;99.90
15341;DHT22;7770;52.158;5.372;2023-03-14T17:30:17;6.30;99.90
15341;DHT22;7770;52.158;5.372;2023-03-14T17:33:03;6.20;99.90
15341;DHT22;7770;52.158;5.372;2023-03-14T17:35:50;6.10;99.90
15341;DHT22;7770;52.158;5.372;2023-03-14T17:38:36;6.00;99.90
15341;DHT22;7770;52.158;5.372;2023-03-14T17:41:22;5.90;99.90
15341;DHT22;7770;52.158;5.372;2023-03-14T17:44:08;5.80;99.90
15341;DHT22;7770;52.158;5.372;2023-03-14T17:46:55;5.70;99.90
15341;DHT22;7770;52.158;5.372;2023-03-14T17:49:41;5.60;99.90
15341;DHT22;7770;52.158;5.372;2023-03-14T17:52:26;5.60;99.90
15341;DHT22;7770;52.158;5.372;2023-03-14T17:55:12;5.60;99.90
15341;DHT22;7770;52.158;5.372;2023-03-14T17:57:59;5.50;99.90
15341;DHT22;7770;52.158;5.372;2023-03-14T18:00:47;5.50;99.90
15341;DHT22;7770;52.158;5.372;2023-03-14T18:03:33;5.40;99.90
15341;DHT22;7770;52.158;5.372;2023-03-14T18:06:19;5.30;99.90
15341;DHT22;7770;52.158;5.372;2023-03-14T18:09:05;5.20;99.90
15341;DHT22;7770;52.158;5.372;2023-03-14T18:11:51;5.10;99.90
15341;DHT22;7770;52.158;5.372;2023-03-14T18:14:38;5.10;99.90
15341;DHT22;7770;52.158;5.372;2023-03-14T18:17:24;5.20;99.90
15341;DHT22;7770;52.158;5.372;2023-03-14T18:20:10;5.20;99.90
15341;DHT22;7770;52.158;5.372;2023-03-14T18:22:57;5.20;99.90
15341;DHT22;7770;52.158;5.372;2023-03-14T18:25:45;5.20;99.90
15341;DHT22;7770;52.158;5.372;2023-03-14T18:28:32;5.10;99.90
15341;DHT22;7770;52.158;5.372;2023-03-14T18:31:19;4.90;99.90
15341;DHT22;7770;52.158;5.372;2023-03-14T18:34:10;4.80;99.90
15341;DHT22;7770;52.158;5.372;2023-03-14T18:36:56;4.70;99.90
15341;DHT22;7770;52.158;5.372;2023-03-14T18:39:42;4.60;99.90
15341;DHT22;7770;52.158;5.372;2023-03-14T18:42:28;4.50;99.90
15341;DHT22;7770;52.158;5.372;2023-03-14T18:45:15;4.50;99.90
15341;DHT22;7770;52.158;5.372;2023-03-14T18:48:02;4.40;99.90
15341;DHT22;7770;52.158;5.372;2023-03-14T18:50:48;4.30;99.90
15341;DHT22;7770;52.158;5.372;2023-03-14T18:53:34;4.20;99.90
15341;DHT22;7770;52.158;5.372;2023-03-14T18:56:21;4.20;99.90
15341;DHT22;7770;52.158;5.372;2023-03-14T18:59:08;4.10;99.90
15341;DHT22;7770;52.158;5.372;2023-03-14T19:01:55;4.00;99.90
15341;DHT22;7770;52.158;5.372;2023-03-14T19:04:41;4.00;99.90
15341;DHT22;7770;52.158;5.372;2023-03-14T19:07:27;3.90;99.90
15341;DHT22;7770;52.158;5.372;2023-03-14T19:10:13;3.90;99.90
15341;DHT22;7770;52.158;5.372;2023-03-14T19:12:59;3.90;99.90
15341;DHT22;7770;52.158;5.372;2023-03-14T19:15:45;3.90;99.90
15341;DHT22;7770;52.158;5.372;2023-03-14T19:18:32;4.00;99.90